Palm City, Florida
Current Conditions -  °F | °C
As of 1:47 PM on Tuesday 21 Oct 2014 (Local Time) from KSUA Reporting Station
Thunderstorm Thunderstorm  
Wind Chill: 75°   Ceiling: 4500
Heat Index: 75°   Visibility: 5mi
Dew Point: 72°   Wind: 6mph
Humidity: 89%   Direction: 100°E
Pressure: 29.95"   Gusts: NA
Location:  27.16°N, 80.27°W
Report Text: KSUA 211747Z 10005KT 5SM TSRA SCT025 BKN045 24/22 A2995
Loading
Personal Weather Stations






























Interactive Weather Map New forecast layout! Learn more

10-Day Weather Forecast

Advertisements
Track Severe Weather on mobile